createdAt,value
2023-05-13T00:00:49.974Z,76
2023-05-13T00:02:49.666Z,76
2023-05-13T00:04:49.342Z,76
2023-05-13T00:06:49.962Z,76
2023-05-13T00:08:49.548Z,76
2023-05-13T00:10:50.114Z,76
2023-05-13T00:12:49.704Z,76
2023-05-13T00:14:50.289Z,76
2023-05-13T00:16:49.986Z,76
2023-05-13T00:18:49.715Z,76
2023-05-13T00:20:49.349Z,84.0
2023-05-13T00:22:49.965Z,83.1
2023-05-13T00:24:49.590Z,76
2023-05-13T00:26:50.316Z,83.8
2023-05-13T00:28:50.010Z,75
2023-05-13T00:30:49.646Z,85.0
2023-05-13T00:32:49.462Z,84.9
2023-05-13T00:34:50.143Z,84.8
2023-05-13T00:36:49.676Z,85.8
2023-05-13T00:38:50.220Z,85.9
2023-05-13T00:40:49.847Z,86.3
2023-05-13T00:42:49.476Z,86.6
2023-05-13T00:44:50.093Z,86.4
2023-05-13T00:46:49.742Z,86.8
2023-05-13T00:48:49.350Z,86.5
2023-05-13T00:50:49.874Z,86.6
2023-05-13T00:52:49.487Z,86.2
2023-05-13T00:54:50.047Z,86.5
2023-05-13T00:56:49.622Z,78
2023-05-13T00:58:50.232Z,87.3
2023-05-13T01:00:49.831Z,78
2023-05-13T01:02:49.597Z,78
2023-05-13T01:04:50.309Z,78
2023-05-13T01:06:49.942Z,78
2023-05-13T01:08:49.581Z,79
2023-05-13T01:10:50.152Z,79
2023-05-13T01:12:49.748Z,79
2023-05-13T01:14:50.306Z,78
2023-05-13T01:16:50.024Z,78
2023-05-13T01:18:49.756Z,78
2023-05-13T01:20:49.394Z,78
2023-05-13T01:22:49.970Z,78
2023-05-13T01:24:49.619Z,78
2023-05-13T01:26:50.181Z,78
2023-05-13T01:28:49.813Z,78
2023-05-13T01:30:49.504Z,78
2023-05-13T01:32:50.128Z,78
2023-05-13T01:34:49.798Z,78
2023-05-13T01:36:49.449Z,78
2023-05-13T01:38:50.023Z,78
2023-05-13T01:40:49.645Z,78
2023-05-13T01:42:50.358Z,78
2023-05-13T01:44:49.898Z,78
2023-05-13T01:46:49.767Z,78
2023-05-13T01:48:49.477Z,78
2023-05-13T01:50:49.992Z,78
2023-05-13T01:52:49.559Z,78
2023-05-13T01:54:50.123Z,78
2023-05-13T01:56:49.685Z,78
2023-05-13T01:58:50.198Z,79
2023-05-13T02:00:49.764Z,79
2023-05-13T02:02:49.421Z,79
2023-05-13T02:04:50.203Z,87.9
2023-05-13T02:06:49.817Z,87.9
2023-05-13T02:08:49.414Z,79
2023-05-13T02:10:50.097Z,79
2023-05-13T02:12:49.665Z,79
2023-05-13T02:14:50.240Z,79
2023-05-13T02:16:49.948Z,79
2023-05-13T02:18:49.739Z,79
2023-05-13T02:20:49.380Z,87.0
2023-05-13T02:22:49.934Z,87.1
2023-05-13T02:24:49.974Z,79
2023-05-13T02:26:49.557Z,79
2023-05-13T02:28:50.141Z,79
2023-05-13T02:30:49.741Z,79
2023-05-13T02:32:50.345Z,79
2023-05-13T02:34:50.067Z,86.6
2023-05-13T02:36:49.685Z,87.0
2023-05-13T02:38:50.306Z,86.7
2023-05-13T02:40:49.918Z,86.6
2023-05-13T02:42:49.462Z,86.6
2023-05-13T02:44:49.979Z,86.6
2023-05-13T02:46:49.572Z,79
2023-05-13T02:48:50.252Z,86.4
2023-05-13T02:50:49.849Z,87.8
2023-05-13T02:52:49.377Z,87.8
2023-05-13T02:54:49.923Z,87.4
2023-05-13T02:56:49.551Z,88.0
2023-05-13T02:58:50.153Z,88.2
2023-05-13T03:00:49.777Z,88.0
2023-05-13T03:02:50.389Z,87.9
2023-05-13T03:04:50.063Z,88.1
2023-05-13T03:06:49.611Z,88.2
2023-05-13T03:08:50.195Z,88.1
2023-05-13T03:10:49.811Z,79
2023-05-13T03:12:49.396Z,79
2023-05-13T03:14:50.036Z,79
2023-05-13T03:16:49.669Z,79
2023-05-13T03:18:50.337Z,79
2023-05-13T03:20:50.006Z,79
2023-05-13T03:22:49.569Z,79
2023-05-13T03:24:50.223Z,79
2023-05-13T03:26:49.730Z,79
2023-05-13T03:28:50.297Z,79
2023-05-13T03:30:49.880Z,79
2023-05-13T03:32:49.598Z,79
2023-05-13T03:34:50.205Z,79
2023-05-13T03:36:49.855Z,86.3
2023-05-13T03:38:49.452Z,86.8
2023-05-13T03:40:50.053Z,86.3
2023-05-13T03:42:49.646Z,78
2023-05-13T03:44:50.165Z,86.1
2023-05-13T03:46:49.721Z,85.9
2023-05-13T03:48:49.370Z,85.7
2023-05-13T03:50:49.913Z,85.5
2023-05-13T03:52:49.502Z,85.3
2023-05-13T03:54:50.018Z,85.6
2023-05-13T03:56:49.651Z,85.2
2023-05-13T03:58:50.299Z,85.1
2023-05-13T04:00:49.840Z,84.8
2023-05-13T04:02:49.709Z,84.6
2023-05-13T04:04:49.515Z,78
2023-05-13T04:06:50.424Z,84.8
2023-05-13T04:08:49.987Z,84.4
2023-05-13T04:10:49.533Z,84.2
2023-05-13T04:12:50.071Z,78
2023-05-13T04:14:49.632Z,78
2023-05-13T04:16:50.297Z,78
2023-05-13T04:18:49.937Z,78
2023-05-13T04:20:49.547Z,78
2023-05-13T04:22:50.124Z,78
2023-05-13T04:24:49.751Z,78
2023-05-13T04:26:49.373Z,78
2023-05-13T04:28:49.901Z,78
2023-05-13T04:30:49.534Z,78
2023-05-13T04:32:50.139Z,78
2023-05-13T04:34:49.787Z,78
2023-05-13T04:36:49.378Z,78
2023-05-13T04:38:49.986Z,78
2023-05-13T04:40:49.591Z,78
2023-05-13T04:42:50.217Z,78
2023-05-13T04:44:49.765Z,78
2023-05-13T04:46:49.382Z,78
2023-05-13T04:48:49.991Z,78
2023-05-13T04:50:50.159Z,78
2023-05-13T04:52:50.049Z,78
2023-05-13T04:54:49.958Z,78
2023-05-13T04:56:49.578Z,78
2023-05-13T04:58:50.122Z,85.0
2023-05-13T05:00:49.672Z,78
2023-05-13T05:02:50.281Z,78
2023-05-13T05:04:49.951Z,78
2023-05-13T05:06:49.590Z,78
2023-05-13T05:08:50.203Z,78
2023-05-13T05:10:49.782Z,78
2023-05-13T05:12:49.415Z,78
2023-05-13T05:14:49.998Z,82.9
2023-05-13T05:16:49.647Z,78
2023-05-13T05:18:50.498Z,82.0
2023-05-13T05:20:50.184Z,77
2023-05-13T05:22:49.893Z,77
2023-05-13T05:24:49.523Z,78
2023-05-13T05:26:50.159Z,77
2023-05-13T05:28:49.723Z,77
2023-05-13T05:30:50.300Z,76
2023-05-13T05:32:49.971Z,79.0
2023-05-13T05:34:49.615Z,75
2023-05-13T05:36:50.212Z,75
2023-05-13T05:38:49.762Z,75
2023-05-13T05:40:50.329Z,78.8
2023-05-13T05:42:49.915Z,78.2
2023-05-13T05:44:49.490Z,78.1
2023-05-13T05:46:50.157Z,77.9
2023-05-13T05:48:49.731Z,78.0
2023-05-13T05:50:50.260Z,78.2
2023-05-13T05:52:49.847Z,77.3
2023-05-13T05:54:49.438Z,76.5
2023-05-13T05:56:50.055Z,72
2023-05-13T05:58:49.650Z,76.2
2023-05-13T06:00:50.244Z,76.3
2023-05-13T06:02:49.996Z,75.3
2023-05-13T06:04:49.768Z,75.1
2023-05-13T06:06:49.479Z,75.3
2023-05-13T06:08:50.008Z,75.1
2023-05-13T06:10:49.579Z,73.4
2023-05-13T06:12:50.130Z,73.4
2023-05-13T06:14:49.636Z,73.9
2023-05-13T06:16:50.228Z,71
2023-05-13T06:18:49.931Z,69
2023-05-13T06:20:49.576Z,69
2023-05-13T06:22:50.191Z,69
2023-05-13T06:24:49.861Z,69
2023-05-13T06:26:49.460Z,69
2023-05-13T06:28:50.193Z,68
2023-05-13T06:30:49.793Z,66
2023-05-13T06:33:00.122Z,68.9
2023-05-13T06:34:49.891Z,67.6
2023-05-13T06:36:49.450Z,68.5
2023-05-13T06:38:50.056Z,67.4
2023-05-13T06:40:49.698Z,68.3
2023-05-13T06:42:50.307Z,67.7
2023-05-13T06:44:49.917Z,67.3
2023-05-13T06:46:49.686Z,67.0
2023-05-13T06:48:50.315Z,66.7
2023-05-13T06:50:49.968Z,67.1
2023-05-13T06:52:49.598Z,67.0
2023-05-13T06:54:50.229Z,64
2023-05-13T06:56:49.943Z,64
2023-05-13T06:58:49.521Z,65.0
2023-05-13T07:00:50.203Z,66.3
2023-05-13T07:02:49.838Z,63.8
2023-05-13T07:04:49.468Z,66.0
2023-05-13T07:06:50.089Z,65.6
2023-05-13T07:08:49.639Z,65.4
2023-05-13T07:10:50.256Z,66.5
2023-05-13T07:12:49.850Z,66.2
2023-05-13T07:14:49.420Z,66.2
2023-05-13T07:16:50.145Z,66.0
2023-05-13T07:18:49.952Z,66.3
2023-05-13T07:20:49.561Z,66.2
2023-05-13T07:22:50.157Z,65.9
2023-05-13T07:24:49.780Z,66.5
2023-05-13T07:26:49.403Z,66.5
2023-05-13T07:28:50.079Z,67.0
2023-05-13T07:30:49.771Z,66.2
2023-05-13T07:32:50.225Z,65.9
2023-05-13T07:34:50.116Z,65.4
2023-05-13T07:36:49.842Z,64.2
2023-05-13T07:38:49.470Z,64.9
2023-05-13T07:40:50.081Z,65.7
2023-05-13T07:42:49.786Z,65.3
2023-05-13T07:44:49.346Z,65.9
2023-05-13T07:46:50.032Z,65.2
2023-05-13T07:48:49.774Z,65.1
2023-05-13T07:50:49.365Z,65.3
2023-05-13T07:52:50.041Z,64.5
2023-05-13T07:54:49.591Z,64.6
2023-05-13T07:56:50.122Z,65.4
2023-05-13T07:58:49.720Z,65.1
2023-05-13T08:00:50.317Z,64.2
2023-05-13T08:02:50.048Z,65.3
2023-05-13T08:04:49.762Z,64.5
2023-05-13T08:06:49.403Z,64.2
2023-05-13T08:08:50.006Z,62
2023-05-13T08:10:49.574Z,63.1
2023-05-13T08:12:50.172Z,64.5
2023-05-13T08:14:49.802Z,63.7
2023-05-13T08:16:49.520Z,62.1
2023-05-13T08:18:50.164Z,64.1
2023-05-13T08:20:49.723Z,62.9
2023-05-13T08:22:50.263Z,63.0
2023-05-13T08:24:49.947Z,63.0
2023-05-13T08:26:49.473Z,61
2023-05-13T08:28:53.846Z,61
2023-05-13T08:30:49.415Z,61
2023-05-13T08:32:50.053Z,61
2023-05-13T08:34:49.802Z,61
2023-05-13T08:36:49.371Z,61
2023-05-13T08:38:50.001Z,61
2023-05-13T08:40:49.598Z,61
2023-05-13T08:42:50.176Z,61
2023-05-13T08:44:49.796Z,61
2023-05-13T08:46:49.415Z,61
2023-05-13T08:48:50.047Z,61
2023-05-13T08:50:49.660Z,61
2023-05-13T08:52:50.236Z,60
2023-05-13T08:54:49.909Z,61.9
2023-05-13T08:56:49.544Z,62.0
2023-05-13T08:58:50.071Z,61.8
2023-05-13T09:00:49.710Z,61.5
2023-05-13T09:02:50.327Z,63.4
2023-05-13T09:04:50.129Z,63.4
2023-05-13T09:06:49.749Z,62.6
2023-05-13T09:08:49.369Z,61.5
2023-05-13T09:10:49.941Z,62.4
2023-05-13T09:12:49.550Z,61.9
2023-05-13T09:14:50.147Z,62.1
2023-05-13T09:16:49.851Z,62.0
2023-05-13T09:18:49.515Z,62.2
2023-05-13T09:20:50.186Z,62.2
2023-05-13T09:22:49.815Z,62.3
2023-05-13T09:24:49.374Z,62.4
2023-05-13T09:26:49.964Z,62.5
2023-05-13T09:28:49.568Z,63.2
2023-05-13T09:30:50.202Z,62.0
2023-05-13T09:32:49.892Z,62.5
2023-05-13T09:34:49.579Z,62.7
2023-05-13T09:36:51.256Z,63.1
2023-05-13T09:38:49.902Z,61.5
2023-05-13T09:40:49.587Z,64.1
2023-05-13T09:42:50.162Z,61.9
2023-05-13T09:44:49.806Z,62.8
2023-05-13T09:46:49.439Z,63.5
2023-05-13T09:48:50.097Z,63.6
2023-05-13T09:50:49.883Z,62.4
2023-05-13T09:52:49.488Z,63.8
2023-05-13T09:54:50.135Z,65.0
2023-05-13T09:56:49.735Z,63.9
2023-05-13T09:58:50.359Z,63.9
2023-05-13T10:00:50.038Z,64.2
2023-05-13T10:02:49.714Z,64.2
2023-05-13T10:04:49.438Z,64.2
2023-05-13T10:06:50.006Z,64.4
2023-05-13T10:08:49.607Z,64.4
2023-05-13T10:10:50.182Z,64.6
2023-05-13T10:12:49.807Z,65.3
2023-05-13T10:14:49.411Z,63.9
2023-05-13T10:16:50.096Z,65.9
2023-05-13T10:18:49.829Z,62
2023-05-13T10:20:49.406Z,61
2023-05-13T10:22:49.998Z,64.2
2023-05-13T10:24:49.565Z,64.3
2023-05-13T10:26:50.169Z,64.3
2023-05-13T10:28:49.741Z,63.9
2023-05-13T10:30:50.327Z,65.0
2023-05-13T10:32:49.914Z,62
2023-05-13T10:34:49.586Z,64.3
2023-05-13T10:36:50.196Z,62
2023-05-13T10:38:49.860Z,62
2023-05-13T10:40:49.428Z,62
2023-05-13T10:42:50.080Z,62
2023-05-13T10:44:49.618Z,62
2023-05-13T10:46:50.289Z,62
2023-05-13T10:48:49.969Z,62
2023-05-13T10:50:49.645Z,62
2023-05-13T10:52:50.206Z,62
2023-05-13T10:54:49.847Z,62
2023-05-13T10:56:49.426Z,63
2023-05-13T10:58:50.060Z,63
2023-05-13T11:00:49.717Z,63
2023-05-13T11:02:50.392Z,63
2023-05-13T11:04:50.077Z,63
2023-05-13T11:06:49.693Z,63
2023-05-13T11:08:50.277Z,63
2023-05-13T11:10:49.879Z,63
2023-05-13T11:12:49.465Z,63
2023-05-13T11:14:50.058Z,64.1
2023-05-13T11:16:49.697Z,62
2023-05-13T11:18:50.287Z,62
2023-05-13T11:20:52.909Z,62
2023-05-13T11:22:49.788Z,62
2023-05-13T11:24:49.346Z,62
2023-05-13T11:26:49.898Z,62
2023-05-13T11:28:49.474Z,62
2023-05-13T11:30:50.080Z,62
2023-05-13T11:32:49.685Z,63
2023-05-13T11:34:49.747Z,63
2023-05-13T11:36:49.345Z,63
2023-05-13T11:38:49.975Z,63
2023-05-13T11:40:49.634Z,62
2023-05-13T11:42:50.250Z,62
2023-05-13T11:44:49.849Z,61
2023-05-13T11:46:49.513Z,61
2023-05-13T11:48:50.146Z,61
2023-05-13T11:50:49.741Z,61
2023-05-13T11:52:49.388Z,61
2023-05-13T11:54:49.971Z,61
2023-05-13T11:56:49.555Z,61
2023-05-13T11:58:50.201Z,60
2023-05-13T12:00:49.858Z,61
2023-05-13T12:02:49.617Z,61
2023-05-13T12:04:49.465Z,61
2023-05-13T12:06:50.099Z,61
2023-05-13T12:08:49.708Z,61
2023-05-13T12:10:50.312Z,63.1
2023-05-13T12:12:49.874Z,61
2023-05-13T12:14:49.455Z,62.8
2023-05-13T12:16:50.099Z,64.7
2023-05-13T12:18:49.698Z,63.2
2023-05-13T12:20:49.431Z,64.8
2023-05-13T12:22:49.988Z,64.7
2023-05-13T12:24:49.550Z,64.8
2023-05-13T12:26:50.139Z,65.2
2023-05-13T12:28:49.742Z,64.5
2023-05-13T12:30:50.332Z,65.0
2023-05-13T12:32:49.972Z,65.9
2023-05-13T12:34:49.690Z,66.6
2023-05-13T12:36:49.526Z,63
2023-05-13T12:38:50.237Z,62
2023-05-13T12:40:49.895Z,62
2023-05-13T12:42:49.556Z,62
2023-05-13T12:44:50.196Z,61
2023-05-13T12:46:49.849Z,61
2023-05-13T12:48:49.519Z,62
2023-05-13T12:50:50.140Z,61
2023-05-13T12:52:49.747Z,61
2023-05-13T12:54:50.338Z,61
2023-05-13T12:56:49.998Z,61
2023-05-13T12:58:49.643Z,61
2023-05-13T13:00:50.293Z,61
2023-05-13T13:02:49.959Z,61
2023-05-13T13:04:49.659Z,61
2023-05-13T13:06:49.363Z,61
2023-05-13T13:08:49.868Z,61
2023-05-13T13:10:49.453Z,61
2023-05-13T13:12:50.164Z,61
2023-05-13T13:14:49.754Z,61
2023-05-13T13:16:50.454Z,61
2023-05-13T13:18:51.016Z,61
2023-05-13T13:20:49.990Z,61
2023-05-13T13:22:49.580Z,61
2023-05-13T13:24:50.225Z,61
2023-05-13T13:26:49.942Z,61
2023-05-13T13:28:49.571Z,61
2023-05-13T13:30:50.158Z,60
2023-05-13T13:32:49.897Z,60
2023-05-13T13:34:49.602Z,60
2023-05-13T13:36:50.262Z,59
2023-05-13T13:38:49.929Z,59
2023-05-13T13:40:49.550Z,59
2023-05-13T13:42:50.134Z,60
2023-05-13T13:44:49.815Z,60
2023-05-13T13:46:49.434Z,60
2023-05-13T13:48:50.077Z,59
2023-05-13T13:50:50.740Z,59
2023-05-13T13:52:50.297Z,60
2023-05-13T13:54:49.976Z,60
2023-05-13T13:56:49.585Z,58
2023-05-13T13:58:50.120Z,58
2023-05-13T14:00:49.746Z,58
2023-05-13T14:02:49.490Z,58
2023-05-13T14:04:50.221Z,57
2023-05-13T14:06:49.851Z,57
2023-05-13T14:08:49.406Z,57
2023-05-13T14:10:49.975Z,57
2023-05-13T14:12:49.594Z,58
2023-05-13T14:14:50.160Z,58
2023-05-13T14:16:49.741Z,58
2023-05-13T14:18:50.330Z,58
2023-05-13T14:20:49.977Z,57
2023-05-13T14:22:49.566Z,57
2023-05-13T14:24:50.189Z,57
2023-05-13T14:26:49.782Z,57
2023-05-13T14:28:49.420Z,57
2023-05-13T14:30:49.977Z,57
2023-05-13T14:32:49.597Z,58
2023-05-13T14:34:50.254Z,58
2023-05-13T14:36:49.889Z,57
2023-05-13T14:38:49.558Z,58.4
2023-05-13T14:40:50.213Z,57
2023-05-13T14:42:49.879Z,58
2023-05-13T14:44:49.495Z,58
2023-05-13T14:46:50.133Z,58
2023-05-13T14:48:49.832Z,59
2023-05-13T14:50:49.393Z,59
2023-05-13T14:52:49.985Z,59
2023-05-13T14:54:49.626Z,59
2023-05-13T14:56:50.232Z,59
2023-05-13T14:58:49.791Z,59
2023-05-13T15:00:49.368Z,59
2023-05-13T15:02:50.119Z,59
2023-05-13T15:04:49.870Z,59
2023-05-13T15:06:49.493Z,58
2023-05-13T15:08:50.106Z,58
2023-05-13T15:10:49.683Z,58
2023-05-13T15:12:50.266Z,57
2023-05-13T15:14:49.868Z,57
2023-05-13T15:16:49.553Z,57
2023-05-13T15:18:50.369Z,57
2023-05-13T15:20:50.124Z,57
2023-05-13T15:22:49.698Z,58
2023-05-13T15:24:50.297Z,58
2023-05-13T15:26:50.000Z,58
2023-05-13T15:28:49.612Z,58
2023-05-13T15:30:50.310Z,58
2023-05-13T15:32:49.933Z,58
2023-05-13T15:34:49.745Z,58
2023-05-13T15:36:49.345Z,58
2023-05-13T15:38:49.984Z,57
2023-05-13T15:40:49.557Z,58
2023-05-13T15:42:50.136Z,57
2023-05-13T15:44:49.732Z,57
2023-05-13T15:46:49.881Z,57
2023-05-13T15:48:49.585Z,56
2023-05-13T15:50:50.198Z,57
2023-05-13T15:52:49.840Z,57
2023-05-13T15:54:49.382Z,56
2023-05-13T15:56:50.027Z,56
2023-05-13T15:58:49.606Z,56
2023-05-13T16:00:50.213Z,56
2023-05-13T16:02:49.780Z,56
2023-05-13T16:04:49.426Z,56
2023-05-13T16:06:50.090Z,56
2023-05-13T16:08:49.727Z,56
2023-05-13T16:10:49.366Z,56
2023-05-13T16:12:49.967Z,56
2023-05-13T16:14:49.551Z,57
2023-05-13T16:16:50.399Z,57
2023-05-13T16:18:50.179Z,57
2023-05-13T16:20:49.794Z,57
2023-05-13T16:22:49.379Z,57
2023-05-13T16:24:49.993Z,57
2023-05-13T16:26:49.594Z,57
2023-05-13T16:28:50.185Z,57
2023-05-13T16:30:49.762Z,57
2023-05-13T16:32:49.421Z,57
2023-05-13T16:34:50.169Z,57
2023-05-13T16:36:49.766Z,57
2023-05-13T16:38:49.333Z,57
2023-05-13T16:40:49.985Z,57
2023-05-13T16:42:49.783Z,56
2023-05-13T16:44:50.391Z,56
2023-05-13T16:46:49.969Z,56
2023-05-13T16:48:49.514Z,56
2023-05-13T16:50:50.088Z,56
2023-05-13T16:52:49.828Z,56
2023-05-13T16:54:49.398Z,56
2023-05-13T16:56:50.232Z,56
2023-05-13T16:58:49.905Z,56
2023-05-13T17:00:49.525Z,56
2023-05-13T17:02:50.230Z,54.3
2023-05-13T17:04:49.970Z,55.5
2023-05-13T17:06:49.576Z,56.5
2023-05-13T17:08:50.305Z,56.2
2023-05-13T17:10:49.928Z,56.5
2023-05-13T17:12:49.593Z,55.9
2023-05-13T17:14:50.174Z,55.7
2023-05-13T17:16:49.944Z,56.2
2023-05-13T17:18:49.723Z,56.3
2023-05-13T17:20:50.284Z,56.4
2023-05-13T17:22:49.892Z,57.4
2023-05-13T17:24:49.453Z,58.0
2023-05-13T17:26:50.074Z,56.9
2023-05-13T17:28:49.775Z,57.5
2023-05-13T17:30:49.443Z,57.4
2023-05-13T17:32:50.073Z,57.4
2023-05-13T17:34:49.792Z,58.6
2023-05-13T17:36:50.320Z,57.9
2023-05-13T17:38:49.912Z,57.5
2023-05-13T17:40:49.517Z,57.5
2023-05-13T17:42:52.589Z,58.7
2023-05-13T17:44:49.670Z,58.9
2023-05-13T17:46:50.277Z,59.2
2023-05-13T17:48:50.056Z,58.8
2023-05-13T17:50:49.748Z,59.6
2023-05-13T17:52:50.361Z,59.7
2023-05-13T17:54:50.023Z,60.2
2023-05-13T17:56:49.578Z,60.5
2023-05-13T17:58:50.147Z,61.0
2023-05-13T18:00:49.767Z,60.1
2023-05-13T18:02:49.468Z,60.9
2023-05-13T18:04:50.063Z,61.8
2023-05-13T18:06:49.663Z,61.8
2023-05-13T18:08:50.222Z,62.9
2023-05-13T18:10:49.835Z,61.8
2023-05-13T18:12:49.479Z,63.6
2023-05-13T18:14:50.098Z,63.1
2023-05-13T18:16:49.835Z,63.1
2023-05-13T18:18:49.576Z,64.3
2023-05-13T18:20:50.226Z,64.3
2023-05-13T18:22:49.881Z,64.6
2023-05-13T18:24:49.462Z,65.4
2023-05-13T18:26:50.069Z,65.1
2023-05-13T18:28:49.634Z,64.5
2023-05-13T18:30:50.216Z,66.1
2023-05-13T18:32:49.896Z,66.0
2023-05-13T18:34:49.710Z,66.2
2023-05-13T18:36:51.417Z,66.6
2023-05-13T18:38:49.687Z,66.7
2023-05-13T18:40:50.283Z,67.5
2023-05-13T18:42:49.893Z,67.1
2023-05-13T18:44:49.559Z,67.1
2023-05-13T18:46:50.126Z,67.2
2023-05-13T18:48:49.691Z,68.7
2023-05-13T18:50:50.245Z,68.7
2023-05-13T18:52:49.801Z,69.1
2023-05-13T18:54:49.413Z,69.1
2023-05-13T18:56:49.971Z,69.3
2023-05-13T18:58:49.582Z,70.1
2023-05-13T19:00:50.161Z,69.9
2023-05-13T19:02:50.010Z,69.9
2023-05-13T19:04:49.808Z,70.8
2023-05-13T19:06:49.373Z,71.2
2023-05-13T19:08:50.015Z,71.7
2023-05-13T19:10:49.664Z,71.5
2023-05-13T19:12:50.254Z,71.1
2023-05-13T19:14:49.819Z,71.6
2023-05-13T19:16:49.516Z,72.3
2023-05-13T19:18:50.316Z,71.8
2023-05-13T19:20:49.953Z,72.1
2023-05-13T19:22:49.549Z,72.4
2023-05-13T19:24:50.166Z,73.4
2023-05-13T19:26:49.794Z,73.6
2023-05-13T19:28:49.457Z,74.0
2023-05-13T19:30:50.211Z,73.2
2023-05-13T19:32:49.827Z,72.8
2023-05-13T19:34:49.515Z,73.4
2023-05-13T19:36:50.113Z,73.1
2023-05-13T19:38:49.760Z,73.2
2023-05-13T19:40:49.373Z,74.3
2023-05-13T19:42:49.998Z,74.4
2023-05-13T19:44:49.539Z,68
2023-05-13T19:46:50.256Z,74.3
2023-05-13T19:48:49.899Z,74.9
2023-05-13T19:50:49.527Z,68
2023-05-13T19:52:50.240Z,74.7
2023-05-13T19:54:49.820Z,74.2
2023-05-13T19:56:49.490Z,68
2023-05-13T19:58:50.089Z,74.8
2023-05-13T20:00:49.702Z,74.5
2023-05-13T20:02:50.430Z,75.3
2023-05-13T20:04:50.063Z,75.1
2023-05-13T20:06:49.660Z,75.2
2023-05-13T20:08:50.218Z,75.4
2023-05-13T20:10:49.789Z,67
2023-05-13T20:12:49.392Z,67
2023-05-13T20:14:49.930Z,68
2023-05-13T20:16:49.660Z,68
2023-05-13T20:18:50.292Z,68
2023-05-13T20:20:49.886Z,69
2023-05-13T20:22:49.434Z,69
2023-05-13T20:24:50.022Z,69
2023-05-13T20:26:49.686Z,69
2023-05-13T20:28:50.275Z,69
2023-05-13T20:30:49.799Z,69
2023-05-13T20:32:49.406Z,69
2023-05-13T20:34:50.124Z,69
2023-05-13T20:36:49.775Z,69
2023-05-13T20:38:49.408Z,69
2023-05-13T20:40:50.029Z,69
2023-05-13T20:42:49.649Z,69
2023-05-13T20:44:50.161Z,69
2023-05-13T20:46:49.793Z,69
2023-05-13T20:48:49.364Z,70
2023-05-13T20:50:49.921Z,70
2023-05-13T20:52:49.502Z,70
2023-05-13T20:54:50.109Z,70
2023-05-13T20:56:49.671Z,70
2023-05-13T20:58:50.217Z,70
2023-05-13T21:00:49.848Z,70
2023-05-13T21:02:49.523Z,70
2023-05-13T21:04:50.219Z,70
2023-05-13T21:06:49.900Z,70
2023-05-13T21:08:49.560Z,70
2023-05-13T21:10:50.170Z,70
2023-05-13T21:12:49.765Z,76.6
2023-05-13T21:14:49.367Z,76.8
2023-05-13T21:16:49.977Z,77.7
2023-05-13T21:18:49.648Z,78.0
2023-05-13T21:20:50.308Z,77.7
2023-05-13T21:22:49.893Z,78.1
2023-05-13T21:24:49.457Z,78.8
2023-05-13T21:26:50.025Z,80.0
2023-05-13T21:28:49.691Z,80.5
2023-05-13T21:30:50.237Z,80.6
2023-05-13T21:32:49.823Z,81.0
2023-05-13T21:34:49.489Z,80.6
2023-05-13T21:36:50.181Z,80.6
2023-05-13T21:38:49.714Z,81.1
2023-05-13T21:40:50.317Z,81.2
2023-05-13T21:42:50.025Z,81.3
2023-05-13T21:44:49.643Z,81.5
2023-05-13T21:46:50.292Z,81.5
2023-05-13T21:48:50.036Z,81.7
2023-05-13T21:50:49.713Z,82.4
2023-05-13T21:52:50.325Z,81.8
2023-05-13T21:54:49.883Z,82.7
2023-05-13T21:56:49.525Z,82.4
2023-05-13T21:58:50.129Z,82.6
2023-05-13T22:00:49.750Z,83.1
2023-05-13T22:02:50.455Z,83.1
2023-05-13T22:04:50.185Z,83.1
2023-05-13T22:06:49.754Z,83.5
2023-05-13T22:08:49.354Z,83.8
2023-05-13T22:10:49.933Z,84.3
2023-05-13T22:12:49.557Z,84.3
2023-05-13T22:14:50.159Z,84.4
2023-05-13T22:17:00.878Z,84.3
2023-05-13T22:18:50.427Z,84.8
2023-05-13T22:20:50.104Z,84.7
2023-05-13T22:22:49.715Z,85.3
2023-05-13T22:24:49.417Z,85.1
2023-05-13T22:26:50.025Z,85.1
2023-05-13T22:28:49.710Z,85.2
2023-05-13T22:30:50.254Z,85.3
2023-05-13T22:32:49.874Z,85.4
2023-05-13T22:34:49.613Z,85.8
2023-05-13T22:36:50.213Z,85.9
2023-05-13T22:38:49.714Z,86.4
2023-05-13T22:40:49.391Z,86.2
2023-05-13T22:42:49.987Z,86.2
2023-05-13T22:44:49.627Z,86.5
2023-05-13T22:46:50.280Z,86.3
2023-05-13T22:48:49.898Z,86.8
2023-05-13T22:50:49.476Z,87.0
2023-05-13T22:52:50.014Z,87.0
2023-05-13T22:54:49.635Z,86.9
2023-05-13T22:56:50.261Z,87.0
2023-05-13T22:58:49.896Z,86.9
2023-05-13T23:00:49.535Z,86.9
2023-05-13T23:02:50.215Z,87.1
2023-05-13T23:04:49.936Z,87.2
2023-05-13T23:06:49.500Z,87.5
2023-05-13T23:08:50.143Z,87.3
2023-05-13T23:10:49.705Z,87.4
2023-05-13T23:12:50.286Z,87.3
2023-05-13T23:14:49.868Z,88.0
2023-05-13T23:16:49.480Z,87.8
2023-05-13T23:18:50.515Z,88.2
2023-05-13T23:20:50.149Z,88.3
2023-05-13T23:22:49.749Z,88.1
2023-05-13T23:24:50.336Z,88.2
2023-05-13T23:26:49.922Z,88.1
2023-05-13T23:28:49.590Z,88.3
2023-05-13T23:30:50.168Z,88.2
2023-05-13T23:32:49.883Z,88.4
2023-05-13T23:34:49.579Z,88.3
2023-05-13T23:36:50.285Z,88.4
2023-05-13T23:38:49.887Z,88.3
2023-05-13T23:40:49.496Z,88.8
2023-05-13T23:42:50.152Z,88.4
2023-05-13T23:44:49.710Z,88.6
2023-05-13T23:46:50.312Z,88.2
2023-05-13T23:48:49.857Z,88.4
2023-05-13T23:50:49.441Z,88.4
2023-05-13T23:52:49.970Z,88.6
2023-05-13T23:54:49.606Z,88.3
2023-05-13T23:56:50.142Z,88.5
2023-05-13T23:58:49.738Z,89.6
